»·PEaware :: C-GTGM KSAN-KPSP

C-GTGM :: KSAN-KPSP

FLIGHT INFORMATION

Flight Status: Arrived
Operator: Privately registered:
Canada
More flights under this callsign
Pilot: Thomas N. (7419)
Aircraft: BEECH AIRCRAFT BEECH AIRLINER
(B190)
More flights by this aircraft type
Origin: KSAN San Diego Intl-Lindbergh
United States
Destination: KPSP Palm Springs Intl
United States
More flights between these airports :: More routes between these airports
Route: +POGGI5 JLI V208 TRM
File this flight plan on PilotEdge
Remarks: Request RNAV (Y) 13R at KPSP
Altitude:
(Current/Filed)
1,500ft
Speed:
(Current/Filed)
210kts
Departed: 22-Oct-15 04:25 PM
Arrived: 22-Oct-15 05:12 PM
Distance/Time
Traveled:
74nm/0:47
Distance/Time
To Go:
Arrived

Flight Plot

Page will automatically refresh every two minutes.


Map Options




Map Legend


Flown Route
Filed Route
Departure Airport
Arrival Airport
Navaid (VOR, NDB)
Fix

Horizontal Profiles

Position Reports

Time Latitude Longitude Heading Altitude Ground
Speed
22-Oct-15 16:01 32.731070 -117.190564 276 22ft 0kts
22-Oct-15 16:02 32.731070 -117.190564 276 22ft 0kts
22-Oct-15 16:03 32.731070 -117.190564 276 22ft 0kts
22-Oct-15 16:04 32.731070 -117.190564 276 22ft 0kts
22-Oct-15 16:05 32.731070 -117.190564 276 22ft 0kts
22-Oct-15 16:06 32.731070 -117.190564 276 22ft 0kts
22-Oct-15 16:07 32.731070 -117.190564 276 22ft 0kts
22-Oct-15 16:08 32.731070 -117.190564 276 22ft 0kts
22-Oct-15 16:09 32.731070 -117.190564 276 22ft 0kts
22-Oct-15 16:10 32.731070 -117.190564 276 22ft 0kts
22-Oct-15 16:11 32.731070 -117.190564 276 22ft 0kts
22-Oct-15 16:12 32.731070 -117.190564 276 22ft 0kts
22-Oct-15 16:13 32.731070 -117.190564 276 22ft 0kts
22-Oct-15 16:14 32.731070 -117.190564 276 22ft 0kts
22-Oct-15 16:15 32.731070 -117.190564 276 22ft 0kts
22-Oct-15 16:16 32.731070 -117.190564 276 22ft 0kts
22-Oct-15 16:17 32.732459 -117.189378 106 22ft 12kts
22-Oct-15 16:18 32.731285 -117.184490 106 22ft 18kts
22-Oct-15 16:19 32.730100 -117.179763 106 22ft 13kts
22-Oct-15 16:20 32.729429 -117.177039 83 22ft 0kts
22-Oct-15 16:21 32.729429 -117.177039 83 22ft 0kts
22-Oct-15 16:22 32.729429 -117.177039 83 22ft 0kts
22-Oct-15 16:23 32.729577 -117.176383 66 22ft 7kts
22-Oct-15 16:24 32.733514 -117.188354 288 233ft 120kts
22-Oct-15 16:25 32.744674 -117.234317 285 1572ft 163kts
22-Oct-15 16:26 32.738850 -117.278956 191 2706ft 164kts
22-Oct-15 16:27 32.693037 -117.272993 175 3933ft 173kts
22-Oct-15 16:28 32.651064 -117.238254 102 4563ft 217kts
22-Oct-15 16:29 32.640534 -117.174225 99 6329ft 184kts
22-Oct-15 16:30 32.631830 -117.118309 99 8116ft 167kts
22-Oct-15 16:31 32.623022 -117.060720 99 10001ft 187kts
22-Oct-15 16:32 32.614898 -117.007931 99 11618ft 202kts
22-Oct-15 16:33 32.614039 -116.942255 81 13525ft 200kts
22-Oct-15 16:34 32.620707 -116.876959 81 14979ft 218kts
22-Oct-15 16:35 32.629079 -116.795403 79 14982ft 265kts
22-Oct-15 16:36 32.684779 -116.752250 15 14982ft 249kts
22-Oct-15 16:37 32.751147 -116.727598 14 14975ft 251kts
22-Oct-15 16:38 32.818361 -116.703233 14 14970ft 253kts
22-Oct-15 16:39 32.885607 -116.678839 13 14974ft 253kts
22-Oct-15 16:40 32.952899 -116.654513 13 14978ft 251kts
22-Oct-15 16:41 33.019320 -116.630505 13 14978ft 249kts
22-Oct-15 16:42 33.085513 -116.606514 13 14979ft 250kts
22-Oct-15 16:43 33.150906 -116.577774 32 14992ft 255kts
22-Oct-15 16:44 33.208585 -116.527604 33 15034ft 255kts
22-Oct-15 16:45 33.266493 -116.477356 36 15009ft 260kts
22-Oct-15 16:46 33.325129 -116.426219 37 14967ft 260kts
22-Oct-15 16:47 33.383303 -116.375022 38 14950ft 257kts
22-Oct-15 16:48 33.440923 -116.324595 38 14950ft 256kts
22-Oct-15 16:49 33.498342 -116.274313 38 14951ft 255kts
22-Oct-15 16:50 33.555493 -116.224201 38 14950ft 255kts
22-Oct-15 16:51 33.612285 -116.173173 41 14949ft 254kts
22-Oct-15 16:52 33.668052 -116.121444 37 14961ft 254kts
22-Oct-15 16:53 33.653657 -116.067481 189 14948ft 230kts
22-Oct-15 16:54 33.601758 -116.114429 216 14940ft 238kts
22-Oct-15 16:55 33.562219 -116.173492 274 14948ft 246kts
22-Oct-15 16:56 33.611391 -116.208050 39 14956ft 246kts
22-Oct-15 16:57 33.663110 -116.151579 44 14028ft 256kts
22-Oct-15 16:58 33.652899 -116.086621 164 12328ft 231kts
22-Oct-15 16:59 33.598971 -116.124758 218 9686ft 237kts
22-Oct-15 17:00 33.549563 -116.176100 219 7179ft 235kts
22-Oct-15 17:01 33.566990 -116.230063 15 5033ft 217kts
22-Oct-15 17:02 33.600023 -116.193237 46 5942ft 169kts
22-Oct-15 17:03 33.639217 -116.151518 14 5939ft 204kts
22-Oct-15 17:04 33.680223 -116.192645 305 5942ft 201kts
22-Oct-15 17:05 33.716265 -116.252572 305 4449ft 239kts
22-Oct-15 17:06 33.753960 -116.316838 303 3948ft 219kts
22-Oct-15 17:07 33.765324 -116.380687 263 3511ft 180kts
22-Oct-15 17:08 33.767261 -116.431509 290 2143ft 141kts
22-Oct-15 17:09 33.786011 -116.469544 328 1370ft 137kts
22-Oct-15 17:10 33.816327 -116.495793 325 612ft 135kts
22-Oct-15 17:11 33.828760 -116.508178 251 482ft 4kts
22-Oct-15 17:12 33.827594 -116.509125 178 482ft 10kts
22-Oct-15 17:13 33.825930 -116.508274 337 482ft 5kts

Navigation Log

Ident Type
Flight plan parsing failed, navigation log unavailable